Lady June — WDG4316 — position and weather

sailwx.info

Track history (hours):
 
Tides and Currents Weather Stations Pressure Air Temp Water Temp Dewpoint Dewpoint Depression Visibility Wind Speed Wind Dir Waves Ship Positions

Lady June

Owner: Callais and Sons LLC, Cutoff, LA. More information available from US FCC via Universal Licensing System and Coast Guard Vessel Documentation Center.

Last reported at 2018-Jun-25 08:06 UTC. Time now 2018-Jun-25 11:41 UTC.
Position N 29°25' W 094°43'.

Length 24 m; draft 2.9 m.

Type: Tug. MMSI: 367535270.

Date/timePositionNaut miles runAvg speedWind from/ knotsBaromVisibWave heightAir tempDewpointWater temp
2018-Jun-25 08:06N 29°25' W 094°43'0 0.0
2018-Jun-25 07:54N 29°25' W 094°43'0 0.0
2018-Jun-25 07:19N 29°25' W 094°43'1 2.1
2018-Jun-25 06:48N 29°25' W 094°44'2 6.4
2018-Jun-25 06:26N 29°23' W 094°46'3 5.9
2018-Jun-25 06:00N 29°22' W 094°49'2 4.6
2018-Jun-25 05:30N 29°22' W 094°51'3 5.4
2018-Jun-25 05:00N 29°22' W 094°54'0 0.7
2018-Jun-25 04:29N 29°22' W 094°54'1 3.0
2018-Jun-25 04:00N 29°23' W 094°53'4 7.4
2018-Jun-25 03:30N 29°22' W 094°49'4 7.2
2018-Jun-25 02:53N 29°26' W 094°50'4 9.6
2018-Jun-25 02:28N 29°30' W 094°52'4 8.7
2018-Jun-25 02:00N 29°33' W 094°55'4 8.4
2018-Jun-25 01:30N 29°37' W 094°57'4 8.8
2018-Jun-25 01:00N 29°41' W 094°59'4 7.5
2018-Jun-25 00:29N 29°44' W 095°02'5 0.1
2018-Jun-23 08:36N 29°44' W 095°08'2 6.2
2018-Jun-23 08:17N 29°45' W 095°06'1 0.7
2018-Jun-23 07:12N 29°46' W 095°06'0 0.5
2018-Jun-23 06:59N 29°46' W 095°07'2 3.2
2018-Jun-23 06:30N 29°46' W 095°05'0 0.5
2018-Jun-23 06:00N 29°46' W 095°05'0 0.0
2018-Jun-23 05:30N 29°46' W 095°05'2 3.3
2018-Jun-23 04:59N 29°46' W 095°06'0 0.0
2018-Jun-23 04:30N 29°46' W 095°06'0 0.0
2018-Jun-23 03:53N 29°46' W 095°06'0 0.3
2018-Jun-23 03:30N 29°46' W 095°06'2 3.4
2018-Jun-23 03:00N 29°46' W 095°05'0 0.0
2018-Jun-23 02:26N 29°46' W 095°05'1 0.1
2018-Jun-22 13:54N 29°46' W 095°06'1 1.5
2018-Jun-22 13:28N 29°46' W 095°05'2 4.0
2018-Jun-22 13:00N 29°48' W 095°04'2 3.2
2018-Jun-22 12:20N 29°46' W 095°06'2 0.7
2018-Jun-22 09:35N 29°47' W 095°04'0 0.2
2018-Jun-22 09:24N 29°47' W 095°04'1 1.7
2018-Jun-22 08:47N 29°46' W 095°05'2 0.7
2018-Jun-22 05:40N 29°45' W 095°06'0 0.4
2018-Jun-22 05:30N 29°45' W 095°06'0 0.3
2018-Jun-22 04:46N 29°45' W 095°06'1 4.5
2018-Jun-22 04:30N 29°46' W 095°05'1 2.6
2018-Jun-22 04:00N 29°47' W 095°05'0 0.0
2018-Jun-22 03:30N 29°47' W 095°05'0 0.0
2018-Jun-22 02:58N 29°47' W 095°05'2 2.4
2018-Jun-22 02:14N 29°45' W 095°06'0 0.1
2018-Jun-22 01:57N 29°45' W 095°06'0 0.0
2018-Jun-22 01:14N 29°45' W 095°06'1 2.4
2018-Jun-22 00:59N 29°46' W 095°05'2 0.3
2018-Jun-21 19:35N 29°45' W 095°04'1 6.5
2018-Jun-21 19:21N 29°44' W 095°02'2 6.0
2018-Jun-21 19:00N 29°42' W 095°01'3 6.2
2018-Jun-21 18:28N 29°40' W 094°58'3 7.1
2018-Jun-21 18:00N 29°37' W 094°57'13 7.4
2018-Jun-21 16:15N 29°25' W 094°50'2 7.7
2018-Jun-21 16:00N 29°24' W 094°49'2 4.8
2018-Jun-21 15:30N 29°23' W 094°46'3 1.6
2018-Jun-21 13:22N 29°25' W 094°43'2 0.7
2018-Jun-21 10:40N 29°24' W 094°45'1 5.7
2018-Jun-21 10:30N 29°24' W 094°46'3 5.2
2018-Jun-21 09:59N 29°22' W 094°48'10 7.2
2018-Jun-21 08:40N 29°31' W 094°53'2 6.9
2018-Jun-21 08:23N 29°32' W 094°54'3 6.5
2018-Jun-21 07:59N 29°35' W 094°56'3 6.6
2018-Jun-21 07:30N 29°37' W 094°58'3 6.5
2018-Jun-21 06:59N 29°41' W 094°59'7 6.8
2018-Jun-21 05:53N 29°46' W 095°05'5 0.3
2018-Jun-20 12:31N 29°42' W 095°01'1 6.0
2018-Jun-20 12:24N 29°42' W 095°00'3 6.4
2018-Jun-20 11:52N 29°39' W 094°58'2 6.7
2018-Jun-20 11:30N 29°37' W 094°57'3 6.3
2018-Jun-20 11:00N 29°37' W 095°01'0 0.8
2018-Jun-20 10:28N 29°37' W 095°02'0 0.0
2018-Jun-20 10:00N 29°37' W 095°02'0 0.0
2018-Jun-20 08:56N 29°37' W 095°02'0 0.0
2018-Jun-20 08:30N 29°37' W 095°02'0 0.0
2018-Jun-20 08:00N 29°37' W 095°02'0 0.0
2018-Jun-20 07:26N 29°37' W 095°02'0 0.0
2018-Jun-20 07:00N 29°37' W 095°02'0 0.0
2018-Jun-20 06:30N 29°37' W 095°02'0 0.0
2018-Jun-20 05:59N 29°37' W 095°02'0 0.0
2018-Jun-20 05:30N 29°37' W 095°02'0 0.0
2018-Jun-20 05:00N 29°37' W 095°02'0 0.0
2018-Jun-20 04:30N 29°37' W 095°02'0 0.0
2018-Jun-20 04:00N 29°37' W 095°02'0 0.0
2018-Jun-20 03:30N 29°37' W 095°02'0 0.0
2018-Jun-20 03:00N 29°37' W 095°02'0 0.0
2018-Jun-20 02:30N 29°37' W 095°02'0 0.0
2018-Jun-20 02:00N 29°37' W 095°02'0 0.0
2018-Jun-20 01:30N 29°37' W 095°02'0 0.0
2018-Jun-20 01:00N 29°37' W 095°02'0 0.0
2018-Jun-20 00:30N 29°37' W 095°02'0 0.0
2018-Jun-19 23:55N 29°37' W 095°02'0 0.0
2018-Jun-19 23:30N 29°37' W 095°02'0 0.0
2018-Jun-19 23:00N 29°37' W 095°02'0 0.0
2018-Jun-19 22:28N 29°37' W 095°02'0 0.0
2018-Jun-19 21:59N 29°37' W 095°02'0 0.0
2018-Jun-19 21:30N 29°37' W 095°02'0 0.0
2018-Jun-19 21:00N 29°37' W 095°02'0 0.0
2018-Jun-19 20:30N 29°37' W 095°02'0 0.0
2018-Jun-19 20:00N 29°37' W 095°02'0 0.0
2018-Jun-19 19:30N 29°37' W 095°02'0 0.0
2018-Jun-19 19:00N 29°37' W 095°02'0 0.0
2018-Jun-19 18:30N 29°37' W 095°02'0 0.1
2018-Jun-19 17:57N 29°37' W 095°01'0 0.0
2018-Jun-19 17:30N 29°37' W 095°01'0 0.0
2018-Jun-19 16:50N 29°37' W 095°01'0 0.0
2018-Jun-19 16:28N 29°37' W 095°01'0 0.0
2018-Jun-19 15:54N 29°37' W 095°01'0 0.0
2018-Jun-19 15:30N 29°37' W 095°01'3 5.7
2018-Jun-19 14:54N 29°37' W 094°58'3 5.9
2018-Jun-19 14:21N 29°40' W 094°59'3 0.1
2018-Jun-17 23:33N 29°42' W 095°01'1 5.1
2018-Jun-17 23:21N 29°42' W 094°60'2 4.6
2018-Jun-17 22:49N 29°40' W 094°58'1 4.8
2018-Jun-17 22:30N 29°38' W 094°58'2 3.1
2018-Jun-17 22:00N 29°37' W 094°59'2 4.7
2018-Jun-17 21:30N 29°37' W 095°01'0 0.1
2018-Jun-17 18:36N 29°37' W 095°02'0 0.0
2018-Jun-17 18:30N 29°37' W 095°02'0 0.0
2018-Jun-17 18:00N 29°37' W 095°02'0 0.0
2018-Jun-17 17:30N 29°37' W 095°02'0 0.0
2018-Jun-17 16:48N 29°37' W 095°02'0 0.0
2018-Jun-17 16:25N 29°37' W 095°02'0 0.0
2018-Jun-17 15:49N 29°37' W 095°02'0 0.0
2018-Jun-17 15:29N 29°37' W 095°02'0 0.0
2018-Jun-17 15:00N 29°37' W 095°02'0 0.0
2018-Jun-17 14:21N 29°37' W 095°02'0 0.0
2018-Jun-17 12:08N 29°37' W 095°02'0 0.0
2018-Jun-17 11:46N 29°37' W 095°02'0 0.0
2018-Jun-17 10:20N 29°37' W 095°02'0 0.0
2018-Jun-17 07:52N 29°37' W 095°02'0 0.1
2018-Jun-17 07:29N 29°37' W 095°01'0 0.0
2018-Jun-17 03:48N 29°37' W 095°01'0 0.1
2018-Jun-17 03:30N 29°37' W 095°01'2 3.0
2018-Jun-17 03:00N 29°37' W 094°60'2 4.5
2018-Jun-17 02:29N 29°39' W 094°58'4 0.2
2018-Jun-16 06:23N 29°42' W 095°01'2 5.1
2018-Jun-16 06:00N 29°41' W 094°59'3 5.0
2018-Jun-16 05:29N 29°39' W 094°58'3 5.5
2018-Jun-16 05:00N 29°36' W 094°57'15 5.6
2018-Jun-16 02:25N 29°24' W 094°49'2 4.7
2018-Jun-16 02:00N 29°22' W 094°48'3 5.9
2018-Jun-16 01:30N 29°20' W 094°51'3 6.0
2018-Jun-16 01:00N 29°18' W 094°53'3 5.2
2018-Jun-16 00:30N 29°17' W 094°56'3 5.2
2018-Jun-16 00:00N 29°17' W 094°59'2 3.3
2018-Jun-15 23:30N 29°15' W 095°00'2 5.0
2018-Jun-15 23:00N 29°13' W 095°02'2 4.8
2018-Jun-15 22:30N 29°12' W 095°04'3 5.3
2018-Jun-15 22:00N 29°10' W 095°07'3 5.4
2018-Jun-15 21:30N 29°09' W 095°09'2 4.8
2018-Jun-15 21:00N 29°07' W 095°11'2 4.6
2018-Jun-15 20:30N 29°05' W 095°12'2 4.8
2018-Jun-15 20:00N 29°03' W 095°13'2 4.9
2018-Jun-15 19:30N 29°01' W 095°14'2 4.8
2018-Jun-15 19:00N 28°59' W 095°16'3 4.2
2018-Jun-15 18:24N 28°57' W 095°18'  
Track history (hours):
 
Tides and Currents Weather Stations Pressure Air Temp Water Temp Dewpoint Dewpoint Depression Visibility Wind Speed Wind Dir Waves Ship Positions

Lady June

Owner: Callais and Sons LLC, Cutoff, LA. More information available from US FCC via Universal Licensing System and Coast Guard Vessel Documentation Center.

Last reported at 2018-Jun-25 08:06 UTC. Time now 2018-Jun-25 11:41 UTC.
Position N 29°25' W 094°43'.

Length 24 m; draft 2.9 m.

Type: Tug. MMSI: 367535270.

Date/timePositionNaut miles runAvg speedWind from/ knotsBaromVisibWave heightAir tempDewpointWater temp
2018-Jun-25 08:06N 29°25' W 094°43'0 0.0
2018-Jun-25 07:54N 29°25' W 094°43'0 0.0
2018-Jun-25 07:19N 29°25' W 094°43'1 2.1
2018-Jun-25 06:48N 29°25' W 094°44'2 6.4
2018-Jun-25 06:26N 29°23' W 094°46'3 5.9
2018-Jun-25 06:00N 29°22' W 094°49'2 4.6
2018-Jun-25 05:30N 29°22' W 094°51'3 5.4
2018-Jun-25 05:00N 29°22' W 094°54'0 0.7
2018-Jun-25 04:29N 29°22' W 094°54'1 3.0
2018-Jun-25 04:00N 29°23' W 094°53'4 7.4
2018-Jun-25 03:30N 29°22' W 094°49'4 7.2
2018-Jun-25 02:53N 29°26' W 094°50'4 9.6
2018-Jun-25 02:28N 29°30' W 094°52'4 8.7
2018-Jun-25 02:00N 29°33' W 094°55'4 8.4
2018-Jun-25 01:30N 29°37' W 094°57'4 8.8
2018-Jun-25 01:00N 29°41' W 094°59'4 7.5
2018-Jun-25 00:29N 29°44' W 095°02'5 0.1
2018-Jun-23 08:36N 29°44' W 095°08'2 6.2
2018-Jun-23 08:17N 29°45' W 095°06'1 0.7
2018-Jun-23 07:12N 29°46' W 095°06'0 0.5
2018-Jun-23 06:59N 29°46' W 095°07'2 3.2
2018-Jun-23 06:30N 29°46' W 095°05'0 0.5
2018-Jun-23 06:00N 29°46' W 095°05'0 0.0
2018-Jun-23 05:30N 29°46' W 095°05'2 3.3
2018-Jun-23 04:59N 29°46' W 095°06'0 0.0
2018-Jun-23 04:30N 29°46' W 095°06'0 0.0
2018-Jun-23 03:53N 29°46' W 095°06'0 0.3
2018-Jun-23 03:30N 29°46' W 095°06'2 3.4
2018-Jun-23 03:00N 29°46' W 095°05'0 0.0
2018-Jun-23 02:26N 29°46' W 095°05'1 0.1
2018-Jun-22 13:54N 29°46' W 095°06'1 1.5
2018-Jun-22 13:28N 29°46' W 095°05'2 4.0
2018-Jun-22 13:00N 29°48' W 095°04'2 3.2
2018-Jun-22 12:20N 29°46' W 095°06'2 0.7
2018-Jun-22 09:35N 29°47' W 095°04'0 0.2
2018-Jun-22 09:24N 29°47' W 095°04'1 1.7
2018-Jun-22 08:47N 29°46' W 095°05'2 0.7
2018-Jun-22 05:40N 29°45' W 095°06'0 0.4
2018-Jun-22 05:30N 29°45' W 095°06'0 0.3
2018-Jun-22 04:46N 29°45' W 095°06'1 4.5
2018-Jun-22 04:30N 29°46' W 095°05'1 2.6
2018-Jun-22 04:00N 29°47' W 095°05'0 0.0
2018-Jun-22 03:30N 29°47' W 095°05'0 0.0
2018-Jun-22 02:58N 29°47' W 095°05'2 2.4
2018-Jun-22 02:14N 29°45' W 095°06'0 0.1
2018-Jun-22 01:57N 29°45' W 095°06'0 0.0
2018-Jun-22 01:14N 29°45' W 095°06'1 2.4
2018-Jun-22 00:59N 29°46' W 095°05'2 0.3
2018-Jun-21 19:35N 29°45' W 095°04'1 6.5
2018-Jun-21 19:21N 29°44' W 095°02'2 6.0
2018-Jun-21 19:00N 29°42' W 095°01'3 6.2
2018-Jun-21 18:28N 29°40' W 094°58'3 7.1
2018-Jun-21 18:00N 29°37' W 094°57'13 7.4
2018-Jun-21 16:15N 29°25' W 094°50'2 7.7
2018-Jun-21 16:00N 29°24' W 094°49'2 4.8
2018-Jun-21 15:30N 29°23' W 094°46'3 1.6
2018-Jun-21 13:22N 29°25' W 094°43'2 0.7
2018-Jun-21 10:40N 29°24' W 094°45'1 5.7
2018-Jun-21 10:30N 29°24' W 094°46'3 5.2
2018-Jun-21 09:59N 29°22' W 094°48'10 7.2
2018-Jun-21 08:40N 29°31' W 094°53'2 6.9
2018-Jun-21 08:23N 29°32' W 094°54'3 6.5
2018-Jun-21 07:59N 29°35' W 094°56'3 6.6
2018-Jun-21 07:30N 29°37' W 094°58'3 6.5
2018-Jun-21 06:59N 29°41' W 094°59'7 6.8
2018-Jun-21 05:53N 29°46' W 095°05'5 0.3
2018-Jun-20 12:31N 29°42' W 095°01'1 6.0
2018-Jun-20 12:24N 29°42' W 095°00'3 6.4
2018-Jun-20 11:52N 29°39' W 094°58'2 6.7
2018-Jun-20 11:30N 29°37' W 094°57'3 6.3
2018-Jun-20 11:00N 29°37' W 095°01'0 0.8
2018-Jun-20 10:28N 29°37' W 095°02'0 0.0
2018-Jun-20 10:00N 29°37' W 095°02'0 0.0
2018-Jun-20 08:56N 29°37' W 095°02'0 0.0
2018-Jun-20 08:30N 29°37' W 095°02'0 0.0
2018-Jun-20 08:00N 29°37' W 095°02'0 0.0
2018-Jun-20 07:26N 29°37' W 095°02'0 0.0
2018-Jun-20 07:00N 29°37' W 095°02'0 0.0
2018-Jun-20 06:30N 29°37' W 095°02'0 0.0
2018-Jun-20 05:59N 29°37' W 095°02'0 0.0
2018-Jun-20 05:30N 29°37' W 095°02'0 0.0
2018-Jun-20 05:00N 29°37' W 095°02'0 0.0
2018-Jun-20 04:30N 29°37' W 095°02'0 0.0
2018-Jun-20 04:00N 29°37' W 095°02'0 0.0
2018-Jun-20 03:30N 29°37' W 095°02'0 0.0
2018-Jun-20 03:00N 29°37' W 095°02'0 0.0
2018-Jun-20 02:30N 29°37' W 095°02'0 0.0
2018-Jun-20 02:00N 29°37' W 095°02'0 0.0
2018-Jun-20 01:30N 29°37' W 095°02'0 0.0
2018-Jun-20 01:00N 29°37' W 095°02'0 0.0
2018-Jun-20 00:30N 29°37' W 095°02'0 0.0
2018-Jun-19 23:55N 29°37' W 095°02'0 0.0
2018-Jun-19 23:30N 29°37' W 095°02'0 0.0
2018-Jun-19 23:00N 29°37' W 095°02'0 0.0
2018-Jun-19 22:28N 29°37' W 095°02'0 0.0
2018-Jun-19 21:59N 29°37' W 095°02'0 0.0
2018-Jun-19 21:30N 29°37' W 095°02'0 0.0
2018-Jun-19 21:00N 29°37' W 095°02'0 0.0
2018-Jun-19 20:30N 29°37' W 095°02'0 0.0
2018-Jun-19 20:00N 29°37' W 095°02'0 0.0
2018-Jun-19 19:30N 29°37' W 095°02'0 0.0
2018-Jun-19 19:00N 29°37' W 095°02'0 0.0
2018-Jun-19 18:30N 29°37' W 095°02'0 0.1
2018-Jun-19 17:57N 29°37' W 095°01'0 0.0
2018-Jun-19 17:30N 29°37' W 095°01'0 0.0
2018-Jun-19 16:50N 29°37' W 095°01'0 0.0
2018-Jun-19 16:28N 29°37' W 095°01'0 0.0
2018-Jun-19 15:54N 29°37' W 095°01'0 0.0
2018-Jun-19 15:30N 29°37' W 095°01'3 5.7
2018-Jun-19 14:54N 29°37' W 094°58'3 5.9
2018-Jun-19 14:21N 29°40' W 094°59'3 0.1
2018-Jun-17 23:33N 29°42' W 095°01'1 5.1
2018-Jun-17 23:21N 29°42' W 094°60'2 4.6
2018-Jun-17 22:49N 29°40' W 094°58'1 4.8
2018-Jun-17 22:30N 29°38' W 094°58'2 3.1
2018-Jun-17 22:00N 29°37' W 094°59'2 4.7
2018-Jun-17 21:30N 29°37' W 095°01'0 0.1
2018-Jun-17 18:36N 29°37' W 095°02'0 0.0
2018-Jun-17 18:30N 29°37' W 095°02'0 0.0
2018-Jun-17 18:00N 29°37' W 095°02'0 0.0
2018-Jun-17 17:30N 29°37' W 095°02'0 0.0
2018-Jun-17 16:48N 29°37' W 095°02'0 0.0
2018-Jun-17 16:25N 29°37' W 095°02'0 0.0
2018-Jun-17 15:49N 29°37' W 095°02'0 0.0
2018-Jun-17 15:29N 29°37' W 095°02'0 0.0
2018-Jun-17 15:00N 29°37' W 095°02'0 0.0
2018-Jun-17 14:21N 29°37' W 095°02'0 0.0
2018-Jun-17 12:08N 29°37' W 095°02'0 0.0
2018-Jun-17 11:46N 29°37' W 095°02'0 0.0
2018-Jun-17 10:20N 29°37' W 095°02'0 0.0
2018-Jun-17 07:52N 29°37' W 095°02'0 0.1
2018-Jun-17 07:29N 29°37' W 095°01'0 0.0
2018-Jun-17 03:48N 29°37' W 095°01'0 0.1
2018-Jun-17 03:30N 29°37' W 095°01'2 3.0
2018-Jun-17 03:00N 29°37' W 094°60'2 4.5
2018-Jun-17 02:29N 29°39' W 094°58'4 0.2
2018-Jun-16 06:23N 29°42' W 095°01'2 5.1
2018-Jun-16 06:00N 29°41' W 094°59'3 5.0
2018-Jun-16 05:29N 29°39' W 094°58'3 5.5
2018-Jun-16 05:00N 29°36' W 094°57'15 5.6
2018-Jun-16 02:25N 29°24' W 094°49'2 4.7
2018-Jun-16 02:00N 29°22' W 094°48'3 5.9
2018-Jun-16 01:30N 29°20' W 094°51'3 6.0
2018-Jun-16 01:00N 29°18' W 094°53'3 5.2
2018-Jun-16 00:30N 29°17' W 094°56'3 5.2
2018-Jun-16 00:00N 29°17' W 094°59'2 3.3
2018-Jun-15 23:30N 29°15' W 095°00'2 5.0
2018-Jun-15 23:00N 29°13' W 095°02'2 4.8
2018-Jun-15 22:30N 29°12' W 095°04'3 5.3
2018-Jun-15 22:00N 29°10' W 095°07'3 5.4
2018-Jun-15 21:30N 29°09' W 095°09'2 4.8
2018-Jun-15 21:00N 29°07' W 095°11'2 4.6
2018-Jun-15 20:30N 29°05' W 095°12'2 4.8
2018-Jun-15 20:00N 29°03' W 095°13'2 4.9
2018-Jun-15 19:30N 29°01' W 095°14'2 4.8
2018-Jun-15 19:00N 28°59' W 095°16'3 4.2
2018-Jun-15 18:24N 28°57' W 095°18'  

Dump ship's entire track history